sensor_id;sensor_type;location;lat;lon;timestamp;P1;durP1;ratioP1;P2;durP2;ratioP2
8293;SDS011;4185;41.506;24.938;2024-02-26T00:01:47;17.13;;;10.20;;
8293;SDS011;4185;41.506;24.938;2024-02-26T00:04:15;17.63;;;11.23;;
8293;SDS011;4185;41.506;24.938;2024-02-26T00:06:42;17.90;;;11.27;;
8293;SDS011;4185;41.506;24.938;2024-02-26T00:09:09;16.13;;;10.10;;
8293;SDS011;4185;41.506;24.938;2024-02-26T00:11:36;17.73;;;10.20;;
8293;SDS011;4185;41.506;24.938;2024-02-26T00:14:03;18.93;;;11.80;;
8293;SDS011;4185;41.506;24.938;2024-02-26T00:16:29;17.83;;;10.23;;
8293;SDS011;4185;41.506;24.938;2024-02-26T00:18:57;16.70;;;10.87;;
8293;SDS011;4185;41.506;24.938;2024-02-26T00:21:25;16.43;;;10.17;;
8293;SDS011;4185;41.506;24.938;2024-02-26T00:23:52;15.33;;;10.23;;
8293;SDS011;4185;41.506;24.938;2024-02-26T00:26:19;16.73;;;9.13;;
8293;SDS011;4185;41.506;24.938;2024-02-26T00:28:46;17.73;;;10.43;;
8293;SDS011;4185;41.506;24.938;2024-02-26T00:31:12;14.20;;;9.07;;
8293;SDS011;4185;41.506;24.938;2024-02-26T00:33:39;18.63;;;12.23;;
8293;SDS011;4185;41.506;24.938;2024-02-26T00:36:06;15.63;;;9.57;;
8293;SDS011;4185;41.506;24.938;2024-02-26T00:38:34;16.10;;;9.83;;
8293;SDS011;4185;41.506;24.938;2024-02-26T00:41:01;14.97;;;9.30;;
8293;SDS011;4185;41.506;24.938;2024-02-26T00:43:28;12.37;;;8.63;;
8293;SDS011;4185;41.506;24.938;2024-02-26T00:45:55;15.87;;;8.80;;
8293;SDS011;4185;41.506;24.938;2024-02-26T00:48:21;13.50;;;8.43;;
8293;SDS011;4185;41.506;24.938;2024-02-26T00:50:50;15.20;;;9.90;;
8293;SDS011;4185;41.506;24.938;2024-02-26T00:53:17;12.87;;;8.53;;
8293;SDS011;4185;41.506;24.938;2024-02-26T00:55:45;11.60;;;7.87;;
8293;SDS011;4185;41.506;24.938;2024-02-26T00:58:12;11.67;;;7.53;;
8293;SDS011;4185;41.506;24.938;2024-02-26T01:00:39;9.57;;;6.87;;
8293;SDS011;4185;41.506;24.938;2024-02-26T01:03:05;11.57;;;7.03;;
8293;SDS011;4185;41.506;24.938;2024-02-26T01:05:32;11.33;;;8.20;;
8293;SDS011;4185;41.506;24.938;2024-02-26T01:07:59;16.77;;;10.80;;
8293;SDS011;4185;41.506;24.938;2024-02-26T01:10:26;14.70;;;10.10;;
8293;SDS011;4185;41.506;24.938;2024-02-26T01:12:54;19.40;;;10.80;;
8293;SDS011;4185;41.506;24.938;2024-02-26T01:15:21;20.57;;;11.90;;
8293;SDS011;4185;41.506;24.938;2024-02-26T01:17:49;20.03;;;10.80;;
8293;SDS011;4185;41.506;24.938;2024-02-26T01:20:16;18.97;;;11.80;;
8293;SDS011;4185;41.506;24.938;2024-02-26T01:22:43;20.67;;;12.37;;
8293;SDS011;4185;41.506;24.938;2024-02-26T01:25:10;19.57;;;10.60;;
8293;SDS011;4185;41.506;24.938;2024-02-26T01:27:36;24.50;;;12.67;;
8293;SDS011;4185;41.506;24.938;2024-02-26T01:30:05;21.23;;;11.97;;
8293;SDS011;4185;41.506;24.938;2024-02-26T01:32:33;16.40;;;10.53;;
8293;SDS011;4185;41.506;24.938;2024-02-26T01:35:01;17.83;;;10.57;;
8293;SDS011;4185;41.506;24.938;2024-02-26T01:37:28;15.10;;;9.47;;
8293;SDS011;4185;41.506;24.938;2024-02-26T01:39:55;16.37;;;9.10;;
8293;SDS011;4185;41.506;24.938;2024-02-26T01:42:22;15.90;;;9.10;;
8293;SDS011;4185;41.506;24.938;2024-02-26T01:44:49;11.53;;;7.83;;
8293;SDS011;4185;41.506;24.938;2024-02-26T01:47:17;15.03;;;9.13;;
8293;SDS011;4185;41.506;24.938;2024-02-26T01:49:44;16.17;;;9.47;;
8293;SDS011;4185;41.506;24.938;2024-02-26T01:52:11;12.50;;;6.87;;
8293;SDS011;4185;41.506;24.938;2024-02-26T01:54:38;8.20;;;5.70;;
8293;SDS011;4185;41.506;24.938;2024-02-26T01:57:06;13.23;;;7.40;;
8293;SDS011;4185;41.506;24.938;2024-02-26T01:59:34;13.13;;;8.10;;
8293;SDS011;4185;41.506;24.938;2024-02-26T02:02:02;16.97;;;9.20;;
8293;SDS011;4185;41.506;24.938;2024-02-26T02:04:33;18.13;;;10.27;;
8293;SDS011;4185;41.506;24.938;2024-02-26T02:07:00;17.07;;;9.83;;
8293;SDS011;4185;41.506;24.938;2024-02-26T02:09:27;21.20;;;11.57;;
8293;SDS011;4185;41.506;24.938;2024-02-26T02:11:54;16.80;;;10.63;;
8293;SDS011;4185;41.506;24.938;2024-02-26T02:14:22;16.93;;;9.37;;
8293;SDS011;4185;41.506;24.938;2024-02-26T02:16:48;16.67;;;9.90;;
8293;SDS011;4185;41.506;24.938;2024-02-26T02:19:15;14.13;;;8.90;;
8293;SDS011;4185;41.506;24.938;2024-02-26T02:21:43;13.57;;;8.37;;
8293;SDS011;4185;41.506;24.938;2024-02-26T02:24:10;14.07;;;8.10;;
8293;SDS011;4185;41.506;24.938;2024-02-26T02:26:37;16.70;;;9.57;;
8293;SDS011;4185;41.506;24.938;2024-02-26T02:29:04;17.93;;;10.87;;
8293;SDS011;4185;41.506;24.938;2024-02-26T02:31:33;15.97;;;10.37;;
8293;SDS011;4185;41.506;24.938;2024-02-26T02:34:00;17.70;;;10.20;;
8293;SDS011;4185;41.506;24.938;2024-02-26T02:36:27;16.17;;;10.27;;
8293;SDS011;4185;41.506;24.938;2024-02-26T02:38:55;15.33;;;9.37;;
8293;SDS011;4185;41.506;24.938;2024-02-26T02:41:21;10.77;;;7.73;;
8293;SDS011;4185;41.506;24.938;2024-02-26T02:43:48;10.20;;;6.47;;
8293;SDS011;4185;41.506;24.938;2024-02-26T02:46:15;9.17;;;6.97;;
8293;SDS011;4185;41.506;24.938;2024-02-26T02:48:42;9.40;;;7.13;;
8293;SDS011;4185;41.506;24.938;2024-02-26T02:51:08;12.83;;;8.13;;
8293;SDS011;4185;41.506;24.938;2024-02-26T02:53:35;11.73;;;6.87;;
8293;SDS011;4185;41.506;24.938;2024-02-26T02:56:04;9.80;;;7.40;;
8293;SDS011;4185;41.506;24.938;2024-02-26T02:58:31;10.67;;;7.33;;
8293;SDS011;4185;41.506;24.938;2024-02-26T03:00:58;11.47;;;7.93;;
8293;SDS011;4185;41.506;24.938;2024-02-26T03:03:25;10.77;;;8.00;;
8293;SDS011;4185;41.506;24.938;2024-02-26T03:05:53;11.30;;;7.57;;
8293;SDS011;4185;41.506;24.938;2024-02-26T03:08:20;9.73;;;7.67;;
8293;SDS011;4185;41.506;24.938;2024-02-26T03:10:46;13.20;;;9.00;;
8293;SDS011;4185;41.506;24.938;2024-02-26T03:13:14;11.73;;;8.00;;
8293;SDS011;4185;41.506;24.938;2024-02-26T03:15:41;9.33;;;6.63;;
8293;SDS011;4185;41.506;24.938;2024-02-26T03:18:08;9.30;;;7.10;;
8293;SDS011;4185;41.506;24.938;2024-02-26T03:20:34;11.83;;;8.03;;
8293;SDS011;4185;41.506;24.938;2024-02-26T03:23:02;9.43;;;7.50;;
8293;SDS011;4185;41.506;24.938;2024-02-26T03:25:28;12.53;;;8.07;;
8293;SDS011;4185;41.506;24.938;2024-02-26T03:27:55;10.50;;;7.60;;
8293;SDS011;4185;41.506;24.938;2024-02-26T03:30:23;11.77;;;8.47;;
8293;SDS011;4185;41.506;24.938;2024-02-26T03:32:50;13.60;;;8.13;;
8293;SDS011;4185;41.506;24.938;2024-02-26T03:35:17;11.33;;;7.83;;
8293;SDS011;4185;41.506;24.938;2024-02-26T03:37:43;13.70;;;7.90;;
8293;SDS011;4185;41.506;24.938;2024-02-26T03:40:12;11.27;;;7.73;;
8293;SDS011;4185;41.506;24.938;2024-02-26T03:42:39;19.73;;;10.33;;
8293;SDS011;4185;41.506;24.938;2024-02-26T03:45:06;21.30;;;10.57;;
8293;SDS011;4185;41.506;24.938;2024-02-26T03:47:37;17.20;;;9.60;;
8293;SDS011;4185;41.506;24.938;2024-02-26T03:50:05;12.77;;;9.13;;
8293;SDS011;4185;41.506;24.938;2024-02-26T03:52:33;12.53;;;8.50;;
8293;SDS011;4185;41.506;24.938;2024-02-26T03:55:00;11.83;;;7.73;;
8293;SDS011;4185;41.506;24.938;2024-02-26T03:57:27;13.33;;;8.07;;
8293;SDS011;4185;41.506;24.938;2024-02-26T03:59:56;12.87;;;8.30;;
8293;SDS011;4185;41.506;24.938;2024-02-26T04:02:23;11.40;;;8.27;;
8293;SDS011;4185;41.506;24.938;2024-02-26T04:04:52;13.40;;;8.07;;
8293;SDS011;4185;41.506;24.938;2024-02-26T04:07:18;10.57;;;7.63;;
8293;SDS011;4185;41.506;24.938;2024-02-26T04:09:45;7.57;;;6.40;;
8293;SDS011;4185;41.506;24.938;2024-02-26T04:12:12;8.47;;;6.97;;
8293;SDS011;4185;41.506;24.938;2024-02-26T04:14:39;9.33;;;7.50;;
8293;SDS011;4185;41.506;24.938;2024-02-26T04:17:06;11.57;;;7.53;;
8293;SDS011;4185;41.506;24.938;2024-02-26T04:19:33;13.60;;;9.43;;
8293;SDS011;4185;41.506;24.938;2024-02-26T04:22:01;17.67;;;11.57;;
8293;SDS011;4185;41.506;24.938;2024-02-26T04:24:27;15.97;;;10.43;;
8293;SDS011;4185;41.506;24.938;2024-02-26T04:26:54;21.43;;;14.47;;
8293;SDS011;4185;41.506;24.938;2024-02-26T04:29:21;15.20;;;10.13;;
8293;SDS011;4185;41.506;24.938;2024-02-26T04:31:48;15.37;;;9.40;;
8293;SDS011;4185;41.506;24.938;2024-02-26T04:34:14;13.60;;;10.00;;
8293;SDS011;4185;41.506;24.938;2024-02-26T04:36:41;14.53;;;9.27;;
8293;SDS011;4185;41.506;24.938;2024-02-26T04:39:10;16.03;;;10.90;;
8293;SDS011;4185;41.506;24.938;2024-02-26T04:41:37;13.60;;;8.87;;
8293;SDS011;4185;41.506;24.938;2024-02-26T04:44:04;12.43;;;8.93;;
8293;SDS011;4185;41.506;24.938;2024-02-26T04:46:30;13.60;;;9.03;;
8293;SDS011;4185;41.506;24.938;2024-02-26T04:48:57;13.70;;;9.60;;
8293;SDS011;4185;41.506;24.938;2024-02-26T04:51:24;13.27;;;8.70;;
8293;SDS011;4185;41.506;24.938;2024-02-26T04:53:51;10.63;;;7.57;;
8293;SDS011;4185;41.506;24.938;2024-02-26T04:56:21;11.63;;;7.90;;
8293;SDS011;4185;41.506;24.938;2024-02-26T04:58:48;11.43;;;8.20;;
8293;SDS011;4185;41.506;24.938;2024-02-26T05:01:15;13.53;;;8.87;;
8293;SDS011;4185;41.506;24.938;2024-02-26T05:03:42;41.67;;;24.00;;
8293;SDS011;4185;41.506;24.938;2024-02-26T05:06:09;40.73;;;25.30;;
8293;SDS011;4185;41.506;24.938;2024-02-26T05:08:36;40.17;;;21.40;;
8293;SDS011;4185;41.506;24.938;2024-02-26T05:11:03;25.17;;;15.67;;
8293;SDS011;4185;41.506;24.938;2024-02-26T05:13:32;24.30;;;14.87;;
8293;SDS011;4185;41.506;24.938;2024-02-26T05:15:59;40.43;;;23.53;;
8293;SDS011;4185;41.506;24.938;2024-02-26T05:18:25;22.90;;;13.80;;
8293;SDS011;4185;41.506;24.938;2024-02-26T05:20:52;24.87;;;16.23;;
8293;SDS011;4185;41.506;24.938;2024-02-26T05:23:19;18.07;;;11.23;;
8293;SDS011;4185;41.506;24.938;2024-02-26T05:25:45;15.07;;;10.30;;
8293;SDS011;4185;41.506;24.938;2024-02-26T05:28:13;16.30;;;9.70;;
8293;SDS011;4185;41.506;24.938;2024-02-26T05:30:46;18.53;;;12.50;;
8293;SDS011;4185;41.506;24.938;2024-02-26T05:33:13;18.40;;;13.40;;
8293;SDS011;4185;41.506;24.938;2024-02-26T05:35:40;17.50;;;10.87;;
8293;SDS011;4185;41.506;24.938;2024-02-26T05:38:07;19.10;;;11.60;;
8293;SDS011;4185;41.506;24.938;2024-02-26T05:40:33;27.80;;;16.10;;
8293;SDS011;4185;41.506;24.938;2024-02-26T05:43:00;24.27;;;14.90;;
8293;SDS011;4185;41.506;24.938;2024-02-26T05:45:27;24.60;;;15.60;;
8293;SDS011;4185;41.506;24.938;2024-02-26T05:47:55;19.67;;;13.30;;
8293;SDS011;4185;41.506;24.938;2024-02-26T05:50:22;20.87;;;11.70;;
8293;SDS011;4185;41.506;24.938;2024-02-26T05:52:49;26.67;;;14.87;;
8293;SDS011;4185;41.506;24.938;2024-02-26T05:55:15;25.57;;;13.87;;
8293;SDS011;4185;41.506;24.938;2024-02-26T05:57:42;41.93;;;21.07;;
8293;SDS011;4185;41.506;24.938;2024-02-26T06:00:09;37.00;;;19.77;;
8293;SDS011;4185;41.506;24.938;2024-02-26T06:02:37;24.40;;;14.40;;
8293;SDS011;4185;41.506;24.938;2024-02-26T06:05:06;24.30;;;13.50;;
8293;SDS011;4185;41.506;24.938;2024-02-26T06:07:34;26.20;;;17.07;;
8293;SDS011;4185;41.506;24.938;2024-02-26T06:10:01;40.17;;;23.57;;
8293;SDS011;4185;41.506;24.938;2024-02-26T06:12:27;35.97;;;24.07;;
8293;SDS011;4185;41.506;24.938;2024-02-26T06:14:55;97.43;;;40.17;;
8293;SDS011;4185;41.506;24.938;2024-02-26T06:17:22;64.77;;;33.23;;
8293;SDS011;4185;41.506;24.938;2024-02-26T06:19:49;41.33;;;23.93;;
8293;SDS011;4185;41.506;24.938;2024-02-26T06:22:17;32.40;;;18.27;;
8293;SDS011;4185;41.506;24.938;2024-02-26T06:24:44;20.83;;;14.43;;
8293;SDS011;4185;41.506;24.938;2024-02-26T06:27:10;21.07;;;14.27;;
8293;SDS011;4185;41.506;24.938;2024-02-26T06:29:37;23.93;;;16.27;;
8293;SDS011;4185;41.506;24.938;2024-02-26T06:32:04;24.93;;;14.67;;
8293;SDS011;4185;41.506;24.938;2024-02-26T06:34:32;20.90;;;15.10;;
8293;SDS011;4185;41.506;24.938;2024-02-26T06:36:58;23.87;;;16.83;;
8293;SDS011;4185;41.506;24.938;2024-02-26T06:39:26;29.73;;;17.57;;
8293;SDS011;4185;41.506;24.938;2024-02-26T06:41:53;30.03;;;20.03;;
8293;SDS011;4185;41.506;24.938;2024-02-26T06:44:25;31.07;;;21.23;;
8293;SDS011;4185;41.506;24.938;2024-02-26T06:46:56;41.53;;;24.70;;
8293;SDS011;4185;41.506;24.938;2024-02-26T06:49:23;37.00;;;24.73;;
8293;SDS011;4185;41.506;24.938;2024-02-26T06:51:50;37.27;;;24.93;;
8293;SDS011;4185;41.506;24.938;2024-02-26T06:54:16;38.80;;;24.60;;
8293;SDS011;4185;41.506;24.938;2024-02-26T06:56:44;31.90;;;21.17;;
8293;SDS011;4185;41.506;24.938;2024-02-26T06:59:11;25.53;;;17.23;;
8293;SDS011;4185;41.506;24.938;2024-02-26T07:01:40;34.93;;;21.93;;
8293;SDS011;4185;41.506;24.938;2024-02-26T07:04:07;34.30;;;21.40;;
8293;SDS011;4185;41.506;24.938;2024-02-26T07:06:36;52.77;;;29.80;;
8293;SDS011;4185;41.506;24.938;2024-02-26T07:09:02;35.80;;;21.93;;
8293;SDS011;4185;41.506;24.938;2024-02-26T07:11:30;33.17;;;20.10;;
8293;SDS011;4185;41.506;24.938;2024-02-26T07:13:58;33.80;;;22.80;;
8293;SDS011;4185;41.506;24.938;2024-02-26T07:16:26;38.57;;;22.93;;
8293;SDS011;4185;41.506;24.938;2024-02-26T07:18:53;38.90;;;24.07;;
8293;SDS011;4185;41.506;24.938;2024-02-26T07:21:19;38.70;;;22.60;;
8293;SDS011;4185;41.506;24.938;2024-02-26T07:23:46;58.03;;;29.97;;
8293;SDS011;4185;41.506;24.938;2024-02-26T07:26:13;43.17;;;23.43;;
8293;SDS011;4185;41.506;24.938;2024-02-26T07:28:40;21.67;;;13.63;;
8293;SDS011;4185;41.506;24.938;2024-02-26T07:31:08;20.53;;;13.63;;
8293;SDS011;4185;41.506;24.938;2024-02-26T07:33:34;22.77;;;15.30;;
8293;SDS011;4185;41.506;24.938;2024-02-26T07:36:01;27.20;;;18.03;;
8293;SDS011;4185;41.506;24.938;2024-02-26T07:38:28;31.10;;;17.77;;
8293;SDS011;4185;41.506;24.938;2024-02-26T07:40:55;25.67;;;15.47;;
8293;SDS011;4185;41.506;24.938;2024-02-26T07:43:22;23.97;;;15.37;;
8293;SDS011;4185;41.506;24.938;2024-02-26T07:45:49;22.20;;;14.50;;
8293;SDS011;4185;41.506;24.938;2024-02-26T07:48:17;40.30;;;22.10;;
8293;SDS011;4185;41.506;24.938;2024-02-26T07:50:43;24.97;;;16.10;;
8293;SDS011;4185;41.506;24.938;2024-02-26T07:53:10;23.80;;;14.63;;
8293;SDS011;4185;41.506;24.938;2024-02-26T07:55:37;19.40;;;11.97;;
8293;SDS011;4185;41.506;24.938;2024-02-26T07:58:04;14.63;;;10.37;;
8293;SDS011;4185;41.506;24.938;2024-02-26T08:00:30;15.57;;;10.47;;
8293;SDS011;4185;41.506;24.938;2024-02-26T08:02:57;16.60;;;10.77;;
8293;SDS011;4185;41.506;24.938;2024-02-26T08:05:25;13.57;;;9.57;;
8293;SDS011;4185;41.506;24.938;2024-02-26T08:07:52;16.70;;;10.80;;
8293;SDS011;4185;41.506;24.938;2024-02-26T08:10:20;21.27;;;13.90;;
8293;SDS011;4185;41.506;24.938;2024-02-26T08:12:46;29.47;;;16.80;;
8293;SDS011;4185;41.506;24.938;2024-02-26T08:15:13;7.23;;;5.33;;
8293;SDS011;4185;41.506;24.938;2024-02-26T08:17:40;7.87;;;6.13;;
8293;SDS011;4185;41.506;24.938;2024-02-26T08:20:07;18.83;;;12.23;;
8293;SDS011;4185;41.506;24.938;2024-02-26T08:22:36;15.60;;;11.20;;
8293;SDS011;4185;41.506;24.938;2024-02-26T08:25:04;16.07;;;11.30;;
8293;SDS011;4185;41.506;24.938;2024-02-26T08:27:34;17.60;;;11.33;;
8293;SDS011;4185;41.506;24.938;2024-02-26T08:30:00;13.53;;;8.83;;
8293;SDS011;4185;41.506;24.938;2024-02-26T08:32:27;14.37;;;9.53;;
8293;SDS011;4185;41.506;24.938;2024-02-26T08:34:54;14.00;;;9.17;;
8293;SDS011;4185;41.506;24.938;2024-02-26T08:37:21;18.10;;;9.97;;
8293;SDS011;4185;41.506;24.938;2024-02-26T08:39:49;16.10;;;9.10;;
8293;SDS011;4185;41.506;24.938;2024-02-26T08:42:16;6.67;;;4.53;;
8293;SDS011;4185;41.506;24.938;2024-02-26T08:44:42;27.43;;;14.37;;
8293;SDS011;4185;41.506;24.938;2024-02-26T08:47:09;22.93;;;13.13;;
8293;SDS011;4185;41.506;24.938;2024-02-26T08:49:36;17.37;;;8.00;;
8293;SDS011;4185;41.506;24.938;2024-02-26T08:52:04;15.77;;;10.93;;
8293;SDS011;4185;41.506;24.938;2024-02-26T08:54:31;11.57;;;7.47;;
8293;SDS011;4185;41.506;24.938;2024-02-26T08:56:59;26.73;;;13.97;;
8293;SDS011;4185;41.506;24.938;2024-02-26T08:59:26;19.23;;;11.77;;
8293;SDS011;4185;41.506;24.938;2024-02-26T09:01:52;17.87;;;10.93;;
8293;SDS011;4185;41.506;24.938;2024-02-26T09:04:19;47.93;;;23.70;;
8293;SDS011;4185;41.506;24.938;2024-02-26T09:06:46;37.73;;;18.27;;
8293;SDS011;4185;41.506;24.938;2024-02-26T09:09:14;31.07;;;15.50;;
8293;SDS011;4185;41.506;24.938;2024-02-26T09:11:40;27.80;;;15.30;;
8293;SDS011;4185;41.506;24.938;2024-02-26T09:14:09;17.10;;;11.00;;
8293;SDS011;4185;41.506;24.938;2024-02-26T09:16:35;13.80;;;8.97;;
8293;SDS011;4185;41.506;24.938;2024-02-26T09:19:02;10.27;;;7.90;;
8293;SDS011;4185;41.506;24.938;2024-02-26T09:21:29;9.97;;;6.80;;
8293;SDS011;4185;41.506;24.938;2024-02-26T09:23:55;8.43;;;6.00;;
8293;SDS011;4185;41.506;24.938;2024-02-26T09:26:22;8.13;;;6.13;;
8293;SDS011;4185;41.506;24.938;2024-02-26T09:28:49;8.27;;;6.67;;
8293;SDS011;4185;41.506;24.938;2024-02-26T09:31:17;8.77;;;6.10;;
8293;SDS011;4185;41.506;24.938;2024-02-26T09:33:44;9.93;;;6.83;;
8293;SDS011;4185;41.506;24.938;2024-02-26T09:36:11;8.47;;;5.53;;
8293;SDS011;4185;41.506;24.938;2024-02-26T09:38:37;8.77;;;5.90;;
8293;SDS011;4185;41.506;24.938;2024-02-26T09:41:05;9.30;;;6.43;;
8293;SDS011;4185;41.506;24.938;2024-02-26T09:43:33;8.33;;;6.20;;
8293;SDS011;4185;41.506;24.938;2024-02-26T09:46:01;7.87;;;6.13;;
8293;SDS011;4185;41.506;24.938;2024-02-26T09:48:30;8.47;;;5.93;;
8293;SDS011;4185;41.506;24.938;2024-02-26T09:50:58;8.17;;;6.13;;
8293;SDS011;4185;41.506;24.938;2024-02-26T09:53:27;6.73;;;5.60;;
8293;SDS011;4185;41.506;24.938;2024-02-26T09:55:57;8.90;;;5.93;;
8293;SDS011;4185;41.506;24.938;2024-02-26T09:58:24;14.53;;;7.50;;
8293;SDS011;4185;41.506;24.938;2024-02-26T10:00:53;30.43;;;17.37;;
8293;SDS011;4185;41.506;24.938;2024-02-26T10:03:24;43.67;;;24.70;;
8293;SDS011;4185;41.506;24.938;2024-02-26T10:05:56;21.33;;;11.77;;
8293;SDS011;4185;41.506;24.938;2024-02-26T10:08:23;34.17;;;13.97;;
8293;SDS011;4185;41.506;24.938;2024-02-26T10:10:51;19.63;;;8.30;;
8293;SDS011;4185;41.506;24.938;2024-02-26T10:13:18;79.53;;;20.73;;
8293;SDS011;4185;41.506;24.938;2024-02-26T10:15:45;90.63;;;23.20;;
8293;SDS011;4185;41.506;24.938;2024-02-26T10:18:12;24.73;;;9.27;;
8293;SDS011;4185;41.506;24.938;2024-02-26T10:20:39;24.77;;;10.47;;
8293;SDS011;4185;41.506;24.938;2024-02-26T10:23:07;7.33;;;4.83;;
8293;SDS011;4185;41.506;24.938;2024-02-26T10:25:33;15.57;;;8.03;;
8293;SDS011;4185;41.506;24.938;2024-02-26T10:28:00;6.07;;;4.97;;
8293;SDS011;4185;41.506;24.938;2024-02-26T10:30:28;7.63;;;4.90;;
8293;SDS011;4185;41.506;24.938;2024-02-26T10:32:55;6.33;;;4.77;;
8293;SDS011;4185;41.506;24.938;2024-02-26T10:35:22;7.57;;;5.97;;
8293;SDS011;4185;41.506;24.938;2024-02-26T10:37:49;6.23;;;4.10;;
8293;SDS011;4185;41.506;24.938;2024-02-26T10:40:18;9.67;;;8.37;;
8293;SDS011;4185;41.506;24.938;2024-02-26T10:42:45;12.10;;;7.80;;
8293;SDS011;4185;41.506;24.938;2024-02-26T10:45:11;8.70;;;7.87;;
8293;SDS011;4185;41.506;24.938;2024-02-26T10:47:39;6.73;;;5.03;;
8293;SDS011;4185;41.506;24.938;2024-02-26T10:50:07;6.33;;;4.30;;
8293;SDS011;4185;41.506;24.938;2024-02-26T10:52:36;7.13;;;4.70;;
8293;SDS011;4185;41.506;24.938;2024-02-26T10:55:04;11.27;;;6.03;;
8293;SDS011;4185;41.506;24.938;2024-02-26T10:57:34;6.10;;;3.90;;
8293;SDS011;4185;41.506;24.938;2024-02-26T11:00:04;6.90;;;4.30;;
8293;SDS011;4185;41.506;24.938;2024-02-26T11:02:35;6.23;;;4.23;;
8293;SDS011;4185;41.506;24.938;2024-02-26T11:05:02;6.37;;;3.80;;
8293;SDS011;4185;41.506;24.938;2024-02-26T11:07:30;6.90;;;3.80;;
8293;SDS011;4185;41.506;24.938;2024-02-26T11:09:57;4.70;;;3.53;;
8293;SDS011;4185;41.506;24.938;2024-02-26T11:12:26;6.87;;;4.63;;
8293;SDS011;4185;41.506;24.938;2024-02-26T11:14:55;6.10;;;4.87;;
8293;SDS011;4185;41.506;24.938;2024-02-26T11:17:23;4.40;;;3.80;;
8293;SDS011;4185;41.506;24.938;2024-02-26T11:19:53;6.83;;;4.67;;
8293;SDS011;4185;41.506;24.938;2024-02-26T11:22:23;16.17;;;9.33;;
8293;SDS011;4185;41.506;24.938;2024-02-26T11:24:51;9.87;;;4.57;;
8293;SDS011;4185;41.506;24.938;2024-02-26T11:27:19;6.17;;;3.93;;
8293;SDS011;4185;41.506;24.938;2024-02-26T11:29:51;7.43;;;5.07;;
8293;SDS011;4185;41.506;24.938;2024-02-26T11:32:21;8.13;;;4.70;;
8293;SDS011;4185;41.506;24.938;2024-02-26T11:34:48;7.37;;;5.13;;
8293;SDS011;4185;41.506;24.938;2024-02-26T11:37:16;5.40;;;3.67;;
8293;SDS011;4185;41.506;24.938;2024-02-26T11:39:44;7.30;;;4.13;;
8293;SDS011;4185;41.506;24.938;2024-02-26T11:42:13;7.57;;;4.80;;
8293;SDS011;4185;41.506;24.938;2024-02-26T11:44:41;8.57;;;5.97;;
8293;SDS011;4185;41.506;24.938;2024-02-26T11:47:12;7.27;;;4.20;;
8293;SDS011;4185;41.506;24.938;2024-02-26T11:49:40;8.57;;;5.40;;
8293;SDS011;4185;41.506;24.938;2024-02-26T11:52:08;11.40;;;8.37;;
8293;SDS011;4185;41.506;24.938;2024-02-26T11:54:38;6.87;;;5.33;;
8293;SDS011;4185;41.506;24.938;2024-02-26T12:00:11;4.40;;;3.50;;
8293;SDS011;4185;41.506;24.938;2024-02-26T12:02:43;7.67;;;2.70;;
8293;SDS011;4185;41.506;24.938;2024-02-26T12:05:13;5.97;;;2.60;;
8293;SDS011;4185;41.506;24.938;2024-02-26T12:07:43;5.63;;;3.60;;
8293;SDS011;4185;41.506;24.938;2024-02-26T12:10:23;3.63;;;2.30;;
8293;SDS011;4185;41.506;24.938;2024-02-26T12:15:39;6.70;;;3.20;;
8293;SDS011;4185;41.506;24.938;2024-02-26T12:18:06;5.37;;;3.20;;
8293;SDS011;4185;41.506;24.938;2024-02-26T12:20:37;3.70;;;3.30;;
8293;SDS011;4185;41.506;24.938;2024-02-26T12:23:04;5.70;;;3.33;;
8293;SDS011;4185;41.506;24.938;2024-02-26T12:25:31;6.23;;;2.70;;
8293;SDS011;4185;41.506;24.938;2024-02-26T12:27:59;6.47;;;2.83;;
8293;SDS011;4185;41.506;24.938;2024-02-26T12:30:26;11.57;;;6.97;;
8293;SDS011;4185;41.506;24.938;2024-02-26T12:32:55;8.33;;;3.50;;
8293;SDS011;4185;41.506;24.938;2024-02-26T12:35:23;9.50;;;5.23;;
8293;SDS011;4185;41.506;24.938;2024-02-26T12:37:52;5.47;;;3.80;;
8293;SDS011;4185;41.506;24.938;2024-02-26T12:40:19;8.27;;;3.40;;
8293;SDS011;4185;41.506;24.938;2024-02-26T12:42:46;9.37;;;4.27;;
8293;SDS011;4185;41.506;24.938;2024-02-26T12:45:14;3.80;;;2.67;;
8293;SDS011;4185;41.506;24.938;2024-02-26T12:47:42;3.40;;;2.67;;
8293;SDS011;4185;41.506;24.938;2024-02-26T12:50:10;5.87;;;2.77;;
8293;SDS011;4185;41.506;24.938;2024-02-26T12:52:38;5.87;;;3.70;;
8293;SDS011;4185;41.506;24.938;2024-02-26T12:55:08;3.90;;;2.60;;
8293;SDS011;4185;41.506;24.938;2024-02-26T12:57:37;4.80;;;3.33;;
8293;SDS011;4185;41.506;24.938;2024-02-26T13:00:05;3.63;;;3.10;;
8293;SDS011;4185;41.506;24.938;2024-02-26T13:02:34;2.40;;;2.10;;
8293;SDS011;4185;41.506;24.938;2024-02-26T13:05:02;7.70;;;3.20;;
8293;SDS011;4185;41.506;24.938;2024-02-26T13:07:30;3.83;;;2.77;;
8293;SDS011;4185;41.506;24.938;2024-02-26T13:09:57;4.63;;;2.43;;
8293;SDS011;4185;41.506;24.938;2024-02-26T13:12:25;6.40;;;3.83;;
8293;SDS011;4185;41.506;24.938;2024-02-26T13:14:58;4.77;;;3.00;;
8293;SDS011;4185;41.506;24.938;2024-02-26T13:17:25;8.70;;;2.30;;
8293;SDS011;4185;41.506;24.938;2024-02-26T13:19:53;3.17;;;1.77;;
8293;SDS011;4185;41.506;24.938;2024-02-26T13:22:20;3.70;;;1.90;;
8293;SDS011;4185;41.506;24.938;2024-02-26T13:24:58;3.23;;;2.00;;
8293;SDS011;4185;41.506;24.938;2024-02-26T13:27:29;3.57;;;2.60;;
8293;SDS011;4185;41.506;24.938;2024-02-26T13:30:06;4.30;;;2.47;;
8293;SDS011;4185;41.506;24.938;2024-02-26T13:32:36;5.13;;;2.30;;
8293;SDS011;4185;41.506;24.938;2024-02-26T13:35:04;3.73;;;1.83;;
8293;SDS011;4185;41.506;24.938;2024-02-26T13:37:32;5.40;;;2.17;;
8293;SDS011;4185;41.506;24.938;2024-02-26T13:40:00;3.90;;;2.10;;
8293;SDS011;4185;41.506;24.938;2024-02-26T13:42:30;5.93;;;3.60;;
8293;SDS011;4185;41.506;24.938;2024-02-26T13:44:57;4.80;;;3.10;;
8293;SDS011;4185;41.506;24.938;2024-02-26T13:47:24;5.83;;;3.47;;
8293;SDS011;4185;41.506;24.938;2024-02-26T13:49:51;7.83;;;4.73;;
8293;SDS011;4185;41.506;24.938;2024-02-26T13:52:18;5.00;;;3.47;;
8293;SDS011;4185;41.506;24.938;2024-02-26T13:54:45;5.77;;;2.10;;
8293;SDS011;4185;41.506;24.938;2024-02-26T13:57:12;2.30;;;2.10;;
8293;SDS011;4185;41.506;24.938;2024-02-26T13:59:40;3.07;;;2.50;;
8293;SDS011;4185;41.506;24.938;2024-02-26T14:02:07;4.67;;;2.50;;
8293;SDS011;4185;41.506;24.938;2024-02-26T14:04:34;4.50;;;2.30;;
8293;SDS011;4185;41.506;24.938;2024-02-26T14:07:01;4.47;;;2.73;;
8293;SDS011;4185;41.506;24.938;2024-02-26T14:09:28;7.73;;;3.67;;
8293;SDS011;4185;41.506;24.938;2024-02-26T14:11:55;5.17;;;3.33;;
8293;SDS011;4185;41.506;24.938;2024-02-26T14:14:21;6.47;;;3.60;;
8293;SDS011;4185;41.506;24.938;2024-02-26T14:16:49;7.67;;;4.50;;
8293;SDS011;4185;41.506;24.938;2024-02-26T14:19:16;4.30;;;3.47;;
8293;SDS011;4185;41.506;24.938;2024-02-26T14:21:43;7.07;;;3.60;;
8293;SDS011;4185;41.506;24.938;2024-02-26T14:24:10;6.67;;;3.53;;
8293;SDS011;4185;41.506;24.938;2024-02-26T14:26:36;3.80;;;2.27;;
8293;SDS011;4185;41.506;24.938;2024-02-26T14:29:03;5.80;;;2.73;;
8293;SDS011;4185;41.506;24.938;2024-02-26T14:31:30;7.50;;;3.90;;
8293;SDS011;4185;41.506;24.938;2024-02-26T14:33:58;7.73;;;4.53;;
8293;SDS011;4185;41.506;24.938;2024-02-26T14:36:25;13.27;;;6.93;;
8293;SDS011;4185;41.506;24.938;2024-02-26T14:38:52;26.80;;;15.30;;
8293;SDS011;4185;41.506;24.938;2024-02-26T14:41:18;14.63;;;7.10;;
8293;SDS011;4185;41.506;24.938;2024-02-26T14:43:45;27.50;;;16.13;;
8293;SDS011;4185;41.506;24.938;2024-02-26T14:46:12;5.03;;;3.13;;
8293;SDS011;4185;41.506;24.938;2024-02-26T14:48:39;6.23;;;3.13;;
8293;SDS011;4185;41.506;24.938;2024-02-26T14:51:07;13.97;;;6.20;;
8293;SDS011;4185;41.506;24.938;2024-02-26T14:53:34;9.73;;;5.67;;
8293;SDS011;4185;41.506;24.938;2024-02-26T14:56:01;5.60;;;3.03;;